METAR for OAMS provided by aerobaticsweb.org
Current time: Friday, 24 Sep, 2021, 15:54 UTC
(This may take a minute, please be patient)


The most recent METAR observation from OAMS in our system was generated at
2021/06/25 00:50 UTC
The observation is:
2021/06/25 00:50 UTC
OAMS 250050Z 21013KT 9999 31/M04 Q1006 BLU+BLU+



access provided by Dr. Guenther Eichhorn at aerobaticsweb.org